Time;durP1;ratioP1;P1;durP2;ratioP2;P2;SDS_P1;SDS_P2;PMS_P1;PMS_P2;Temp;Humidity;BMP_temperature;BMP_pressure;BME280_temperature;BME280_humidity;BME280_pressure;Samples;Min_cycle;Max_cycle;Signal;HPM_P1;HPM_P2
2023/03/23 00:01:19;;;;;;;8.80;2.83;;;12.30;99.90;;;;;;5103525;28;20081;-39
2023/03/23 00:03:46;;;;;;;6.82;2.70;;;12.30;99.90;;;;;;5114669;28;20051;-39
2023/03/23 00:06:16;;;;;;;10.30;2.90;;;12.40;99.90;;;;;;5106167;28;20048;-39
2023/03/23 00:08:47;;;;;;;2.85;2.28;;;12.40;99.90;;;;;;5111793;27;20047;-39
2023/03/23 00:11:18;;;;;;;4.65;2.35;;;12.40;99.90;;;;;;5114172;28;20019;-38
2023/03/23 00:13:45;;;;;;;7.15;2.22;;;12.50;99.90;;;;;;5114166;28;20028;-34
2023/03/23 00:16:18;;;;;;;3.97;2.25;;;12.50;99.90;;;;;;5113630;28;20498;-38
2023/03/23 00:18:52;;;;;;;6.30;3.58;;;12.50;99.90;;;;;;5096395;28;20085;-38
2023/03/23 00:21:33;;;;;;;5.72;2.20;;;12.50;99.90;;;;;;5093682;28;20069;-38
2023/03/23 00:24:08;;;;;;;4.97;2.88;;;12.50;99.90;;;;;;5095847;28;20030;-38
2023/03/23 00:26:40;;;;;;;2.28;2.00;;;12.50;99.90;;;;;;5106501;28;20024;-47
2023/03/23 00:29:07;;;;;;;3.63;2.20;;;12.50;99.90;;;;;;5114006;28;20495;-39
2023/03/23 00:31:34;;;;;;;4.72;2.08;;;12.50;99.90;;;;;;5113901;28;20016;-38
2023/03/23 00:34:03;;;;;;;2.90;2.00;;;12.50;99.90;;;;;;5099123;28;20040;-36
2023/03/23 00:36:30;;;;;;;3.60;2.72;;;12.50;99.90;;;;;;5111363;28;20031;-36
2023/03/23 00:38:59;;;;;;;6.23;2.23;;;12.60;99.90;;;;;;5098412;28;20384;-39
2023/03/23 00:41:28;;;;;;;5.75;2.30;;;12.60;99.90;;;;;;5107300;28;20055;-38
2023/03/23 00:43:56;;;;;;;2.33;1.88;;;12.60;99.90;;;;;;5112932;28;20028;-36
2023/03/23 00:46:22;;;;;;;3.58;2.15;;;12.70;99.90;;;;;;5113592;28;20426;-35
2023/03/23 00:48:50;;;;;;;6.75;2.30;;;12.70;99.90;;;;;;5109503;28;20020;-38
2023/03/23 00:51:16;;;;;;;;;;;12.60;99.90;;;;;;5110487;28;20207;-34
2023/03/23 00:53:42;;;;;;;4.47;2.28;;;12.60;99.90;;;;;;5106962;28;19926;-36
2023/03/23 00:56:09;;;;;;;3.40;1.80;;;12.60;99.90;;;;;;5092174;28;20099;-38
2023/03/23 00:58:35;;;;;;;7.70;2.47;;;12.70;99.90;;;;;;5093698;28;20077;-37
2023/03/23 01:01:01;;;;;;;7.75;2.15;;;12.60;99.90;;;;;;5096823;28;20024;-38
2023/03/23 01:03:28;;;;;;;2.35;1.98;;;12.60;99.90;;;;;;5102579;28;20034;-34
2023/03/23 01:05:54;;;;;;;4.67;1.70;;;12.60;99.90;;;;;;5094269;28;20016;-39
2023/03/23 01:08:21;;;;;;;6.85;2.38;;;12.70;99.90;;;;;;5109650;28;20264;-40
2023/03/23 01:10:47;;;;;;;2.58;1.63;;;12.70;99.90;;;;;;5108082;28;20027;-41
2023/03/23 01:13:14;;;;;;;3.15;1.80;;;12.70;99.90;;;;;;5105616;28;20086;-37
2023/03/23 01:15:40;;;;;;;3.00;1.50;;;12.70;99.90;;;;;;5113299;28;20028;-36
2023/03/23 01:18:06;;;;;;;2.97;2.10;;;12.70;99.90;;;;;;5100471;28;20052;-37
2023/03/23 01:20:32;;;;;;;2.80;1.40;;;12.70;99.90;;;;;;5106913;28;20067;-35
2023/03/23 01:23:00;;;;;;;3.33;1.75;;;12.70;99.90;;;;;;5098998;28;20025;-36
2023/03/23 01:25:27;;;;;;;;;;;12.70;99.90;;;;;;5104570;28;20399;-33
2023/03/23 01:27:53;;;;;;;2.63;1.48;;;12.70;99.90;;;;;;5096112;28;20360;-34
2023/03/23 01:30:18;;;;;;;2.00;1.70;;;12.70;99.90;;;;;;5098121;28;20028;-39
2023/03/23 01:32:44;;;;;;;6.40;1.90;;;12.80;99.90;;;;;;5092714;28;20043;-35
2023/03/23 01:35:11;;;;;;;3.10;1.50;;;12.80;99.90;;;;;;5093762;28;20404;-41
2023/03/23 01:37:37;;;;;;;2.13;1.80;;;12.70;99.90;;;;;;5104436;28;20035;-38
2023/03/23 01:40:04;;;;;;;2.55;1.83;;;12.70;99.90;;;;;;5109853;28;20471;-38
2023/03/23 01:42:33;;;;;;;8.07;1.90;;;12.70;99.90;;;;;;5099378;28;20023;-42
2023/03/23 01:45:28;;;;;;;4.07;1.60;;;12.70;99.90;;;;;;5092901;28;20024;-40
2023/03/23 01:48:02;;;;;;;6.38;1.90;;;12.80;99.90;;;;;;5092841;28;20107;-36
2023/03/23 01:50:35;;;;;;;3.75;1.58;;;12.80;99.90;;;;;;5096797;28;20016;-38
2023/03/23 01:53:06;;;;;;;9.68;1.92;;;12.70;99.90;;;;;;5117026;28;20115;-35
2023/03/23 01:55:31;;;;;;;5.95;1.80;;;12.70;99.90;;;;;;5096087;28;20016;-41
2023/03/23 01:57:57;;;;;;;3.45;1.60;;;12.80;99.90;;;;;;5096499;28;20031;-38
2023/03/23 02:00:25;;;;;;;4.75;1.42;;;12.70;99.90;;;;;;5103611;28;20054;-37
2023/03/23 02:02:52;;;;;;;2.65;2.45;;;12.80;99.90;;;;;;5097142;28;20051;-38
2023/03/23 02:05:31;;;;;;;2.22;1.50;;;12.80;99.90;;;;;;5096274;28;20024;-34
2023/03/23 02:08:02;;;;;;;2.03;1.40;;;12.80;99.90;;;;;;5095921;28;20024;-38
2023/03/23 02:10:29;;;;;;;2.47;1.60;;;12.70;99.90;;;;;;5098557;28;20027;-36
2023/03/23 02:12:55;;;;;;;1.77;0.93;;;12.70;99.90;;;;;;5116856;28;20503;-34
2023/03/23 02:15:22;;;;;;;1.58;1.20;;;12.80;99.90;;;;;;5116580;28;20024;-34
2023/03/23 02:18:10;;;;;;;3.80;1.98;;;12.70;99.90;;;;;;5116733;28;20032;-35
2023/03/23 02:21:06;;;;;;;5.32;1.80;;;12.70;99.90;;;;;;5114796;28;20072;-37
2023/03/23 02:23:50;;;;;;;11.52;1.88;;;12.70;99.90;;;;;;5113882;28;20539;-38
2023/03/23 02:26:34;;;;;;;2.15;1.45;;;12.70;99.90;;;;;;5105837;28;20510;-36
2023/03/23 02:29:16;;;;;;;4.78;1.70;;;12.70;99.90;;;;;;5095865;28;20411;-38
2023/03/23 02:32:00;;;;;;;2.63;1.75;;;12.80;99.90;;;;;;5099022;28;20053;-39
2023/03/23 02:34:30;;;;;;;1.40;1.30;;;12.70;99.90;;;;;;5095466;28;20503;-40
2023/03/23 02:37:01;;;;;;;3.53;1.77;;;12.80;99.90;;;;;;5106438;28;20034;-40
2023/03/23 02:39:34;;;;;;;2.30;1.60;;;12.70;99.90;;;;;;5096163;28;21393;-39
2023/03/23 02:42:09;;;;;;;1.83;1.58;;;12.80;99.90;;;;;;5104723;28;20035;-38
2023/03/23 02:44:40;;;;;;;1.88;1.58;;;12.80;99.90;;;;;;5095601;28;20023;-41
2023/03/23 02:47:10;;;;;;;2.97;1.38;;;12.80;99.90;;;;;;5104280;28;20124;-36
2023/03/23 02:49:38;;;;;;;3.35;1.52;;;12.80;99.90;;;;;;5111164;28;20464;-38
2023/03/23 02:52:14;;;;;;;1.83;1.40;;;12.80;99.90;;;;;;5100172;28;20062;-38
2023/03/23 02:54:42;;;;;;;1.70;1.23;;;12.90;99.90;;;;;;5098949;28;20110;-38
2023/03/23 02:57:08;;;;;;;;;;;12.80;99.90;;;;;;5104919;28;20020;-40
2023/03/23 02:59:34;;;;;;;3.13;1.35;;;12.90;99.90;;;;;;5095145;28;19908;-32
2023/03/23 03:02:32;;;;;;;4.88;1.40;;;12.90;99.90;;;;;;5093707;28;20073;-45
2023/03/23 03:05:00;;;;;;;3.10;1.88;;;12.80;99.90;;;;;;5100434;28;20507;-42
2023/03/23 03:07:48;;;;;;;5.43;1.98;;;12.80;99.90;;;;;;5096051;28;20024;-41
2023/03/23 03:10:28;;;;;;;6.28;1.50;;;12.80;99.90;;;;;;5094663;28;20020;-42
2023/03/23 03:13:04;;;;;;;7.63;1.73;;;12.80;99.90;;;;;;5107502;28;20028;-46
2023/03/23 03:15:40;;;;;;;3.90;1.40;;;12.70;99.90;;;;;;5100885;28;20098;-44
2023/03/23 03:18:11;;;;;;;5.38;1.73;;;12.80;99.90;;;;;;5095083;28;20039;-45
2023/03/23 03:20:41;;;;;;;7.13;1.60;;;12.80;99.90;;;;;;5097342;28;20020;-40
2023/03/23 03:23:09;;;;;;;10.90;1.88;;;12.80;99.90;;;;;;5113291;28;20114;-35
2023/03/23 03:25:36;;;;;;;2.47;1.23;;;12.80;99.90;;;;;;5115447;27;20456;-36
2023/03/23 03:28:03;;;;;;;3.97;1.67;;;12.80;99.90;;;;;;5115112;28;20072;-40
2023/03/23 03:30:31;;;;;;;4.78;1.27;;;12.90;99.90;;;;;;5111853;28;20118;-39
2023/03/23 03:33:00;;;;;;;3.78;1.13;;;12.90;99.90;;;;;;5093500;28;20055;-49
2023/03/23 03:35:26;;;;;;;2.15;1.08;;;12.80;99.90;;;;;;5093719;28;20498;-38
2023/03/23 03:37:53;;;;;;;3.63;1.30;;;12.80;99.90;;;;;;5095017;28;20099;-47
2023/03/23 03:40:21;;;;;;;2.90;1.40;;;12.80;99.90;;;;;;5093396;28;20028;-42
2023/03/23 03:42:47;;;;;;;1.65;1.25;;;12.80;99.90;;;;;;5115252;28;20491;-44
2023/03/23 03:45:16;;;;;;;1.35;1.23;;;12.80;99.90;;;;;;5114865;28;20038;-43
2023/03/23 03:47:42;;;;;;;4.22;1.17;;;12.90;99.90;;;;;;5114834;28;20031;-43
2023/03/23 03:50:09;;;;;;;4.45;1.42;;;12.90;99.90;;;;;;5095149;28;20365;-48
2023/03/23 03:52:35;;;;;;;1.30;1.10;;;12.90;99.90;;;;;;5095730;28;20024;-45
2023/03/23 03:55:01;;;;;;;6.22;1.63;;;12.90;99.90;;;;;;5113543;28;20115;-46
2023/03/23 03:57:27;;;;;;;2.03;1.52;;;12.90;99.90;;;;;;5097417;28;20537;-45
2023/03/23 03:59:52;;;;;;;5.97;1.58;;;12.90;99.90;;;;;;5094204;28;20085;-44
2023/03/23 04:02:19;;;;;;;1.45;1.10;;;12.90;99.90;;;;;;5110398;28;20039;-43
2023/03/23 04:04:49;;;;;;;3.47;1.47;;;12.90;99.90;;;;;;5113404;28;20047;-45
2023/03/23 04:07:16;;;;;;;4.22;1.10;;;13.00;99.90;;;;;;5099146;28;20035;-41
2023/03/23 04:09:43;;;;;;;3.47;1.20;;;13.00;99.90;;;;;;5101670;28;20031;-45
2023/03/23 04:12:09;;;;;;;2.20;0.95;;;13.00;99.90;;;;;;5096632;28;20380;-45
2023/03/23 04:14:35;;;;;;;5.47;1.52;;;13.00;99.90;;;;;;5104978;28;20028;-45
2023/03/23 04:17:01;;;;;;;1.70;0.80;;;12.90;99.90;;;;;;5093876;28;20101;-41
2023/03/23 04:19:28;;;;;;;4.93;1.40;;;12.90;99.90;;;;;;5101294;28;20024;-37
2023/03/23 04:21:54;;;;;;;3.58;1.00;;;12.90;99.90;;;;;;5104118;28;20376;-39
2023/03/23 04:24:23;;;;;;;5.82;1.65;;;12.90;99.90;;;;;;5114061;28;20058;-34
2023/03/23 04:26:51;;;;;;;2.92;0.98;;;12.90;99.90;;;;;;5093808;28;20538;-39
2023/03/23 04:29:17;;;;;;;;;;;12.90;99.90;;;;;;5102179;28;20019;-39
2023/03/23 04:31:44;;;;;;;9.00;1.55;;;12.90;99.90;;;;;;5105065;28;20312;-39
2023/03/23 04:34:13;;;;;;;8.57;1.67;;;12.90;99.90;;;;;;5093612;28;20527;-39
2023/03/23 04:36:40;;;;;;;3.88;0.85;;;12.90;99.90;;;;;;5106614;28;20015;-39
2023/03/23 04:39:09;;;;;;;4.18;1.30;;;12.90;99.90;;;;;;5092751;28;20080;-39
2023/03/23 04:41:36;;;;;;;2.45;1.13;;;12.80;99.90;;;;;;5093633;28;20389;-36
2023/03/23 04:44:04;;;;;;;4.72;0.88;;;12.80;99.90;;;;;;5093270;28;20152;-37
2023/03/23 04:46:30;;;;;;;;;;;12.80;99.90;;;;;;5093498;28;20397;-36
2023/03/23 04:48:58;;;;;;;5.13;1.13;;;12.90;99.90;;;;;;5093946;28;19915;-37
2023/03/23 04:51:26;;;;;;;5.05;1.42;;;12.80;99.90;;;;;;5093507;28;20040;-36
2023/03/23 04:53:55;;;;;;;1.30;1.00;;;12.90;99.90;;;;;;5093219;28;20419;-36
2023/03/23 04:56:21;;;;;;;7.43;2.10;;;12.90;99.90;;;;;;5098211;28;20384;-37
2023/03/23 04:58:47;;;;;;;6.68;1.38;;;12.80;99.90;;;;;;5093377;28;20111;-36
2023/03/23 05:01:17;;;;;;;5.13;1.58;;;12.70;99.90;;;;;;5093093;28;20035;-37
2023/03/23 05:03:43;;;;;;;11.18;1.75;;;12.60;99.90;;;;;;5103258;28;20031;-37
2023/03/23 05:06:10;;;;;;;4.53;1.25;;;12.60;99.90;;;;;;5111735;28;20369;-39
2023/03/23 05:08:38;;;;;;;3.75;0.95;;;12.60;99.90;;;;;;5113338;28;20012;-38
2023/03/23 05:11:06;;;;;;;8.77;1.45;;;12.40;99.90;;;;;;5113647;28;20046;-41
2023/03/23 05:13:32;;;;;;;5.72;1.52;;;12.30;99.90;;;;;;5106672;28;20100;-40
2023/03/23 05:16:02;;;;;;;4.15;0.75;;;12.30;99.90;;;;;;5113303;28;20062;-37
2023/03/23 05:18:28;;;;;;;4.40;1.33;;;12.10;99.90;;;;;;5108289;28;20032;-38
2023/03/23 05:20:54;;;;;;;12.07;1.95;;;12.00;99.90;;;;;;5111177;28;20023;-35
2023/03/23 05:23:24;;;;;;;10.10;1.30;;;11.70;99.90;;;;;;5102518;28;20046;-33
2023/03/23 05:26:00;;;;;;;8.80;1.40;;;11.50;99.90;;;;;;5117785;28;20016;-40
2023/03/23 05:28:30;;;;;;;4.75;1.45;;;11.30;99.90;;;;;;5103463;28;20031;-35
2023/03/23 05:30:56;;;;;;;8.35;1.63;;;11.20;99.90;;;;;;5098183;28;20024;-36
2023/03/23 05:33:22;;;;;;;8.65;2.63;;;11.20;99.90;;;;;;5097244;28;20379;-34
2023/03/23 05:35:49;;;;;;;6.85;1.85;;;11.20;99.90;;;;;;5097942;28;20043;-37
2023/03/23 05:38:15;;;;;;;9.18;1.77;;;11.20;99.90;;;;;;5097094;28;20089;-36
2023/03/23 05:40:41;;;;;;;8.63;1.98;;;11.20;99.90;;;;;;5099323;28;20045;-35
2023/03/23 05:43:08;;;;;;;11.52;1.77;;;11.10;99.90;;;;;;5096705;28;20507;-36
2023/03/23 05:45:34;;;;;;;9.10;2.03;;;11.10;99.90;;;;;;5096804;28;20016;-35
2023/03/23 05:48:01;;;;;;;6.20;1.67;;;11.10;99.90;;;;;;5097440;28;20028;-34
2023/03/23 05:50:27;;;;;;;14.73;1.83;;;11.20;99.90;;;;;;5096625;28;20085;-36
2023/03/23 05:52:54;;;;;;;12.30;1.85;;;11.10;99.90;;;;;;5096557;28;20051;-38
2023/03/23 05:55:20;;;;;;;7.93;2.05;;;11.10;99.90;;;;;;5096843;28;20027;-36
2023/03/23 05:57:46;;;;;;;10.98;2.13;;;11.10;99.90;;;;;;5103268;28;20024;-38
2023/03/23 06:00:19;;;;;;;12.18;2.13;;;11.10;99.90;;;;;;5096747;28;20068;-38
2023/03/23 06:02:46;;;;;;;4.97;1.85;;;11.10;99.90;;;;;;5095081;28;20035;-35
2023/03/23 06:05:13;;;;;;;9.77;2.13;;;11.10;99.90;;;;;;5096968;28;20118;-39
2023/03/23 06:07:39;;;;;;;4.15;2.22;;;11.00;99.90;;;;;;5096556;28;20027;-34
2023/03/23 06:10:06;;;;;;;9.70;2.25;;;11.00;99.90;;;;;;5096230;28;20472;-36
2023/03/23 06:12:32;;;;;;;9.85;1.95;;;11.00;99.90;;;;;;5096478;28;20031;-40
2023/03/23 06:14:58;;;;;;;15.48;3.35;;;11.10;99.90;;;;;;5096406;28;20031;-36
2023/03/23 06:17:25;;;;;;;6.30;1.40;;;11.10;99.90;;;;;;5113122;28;20567;-36
2023/03/23 06:19:50;;;;;;;7.88;2.42;;;11.00;99.90;;;;;;5116560;28;20360;-41
2023/03/23 06:22:17;;;;;;;7.25;2.17;;;11.00;99.90;;;;;;5115640;28;20031;-44
2023/03/23 06:24:44;;;;;;;9.02;2.17;;;11.00;99.90;;;;;;5116628;28;20479;-41
2023/03/23 06:27:10;;;;;;;9.45;2.00;;;11.00;99.90;;;;;;5114959;28;20072;-41
2023/03/23 06:29:36;;;;;;;6.80;2.10;;;11.00;99.90;;;;;;5096201;28;20032;-41
2023/03/23 06:32:04;;;;;;;5.50;1.95;;;11.00;99.90;;;;;;5100565;28;20403;-41
2023/03/23 06:34:32;;;;;;;13.90;2.88;;;11.10;99.90;;;;;;5107999;28;20043;-42
2023/03/23 06:36:58;;;;;;;8.35;3.53;;;11.10;99.90;;;;;;5096219;28;20476;-43
2023/03/23 06:39:24;;;;;;;7.35;2.20;;;11.10;99.90;;;;;;5110086;28;20456;-42
2023/03/23 06:41:50;;;;;;;17.17;2.60;;;11.10;99.90;;;;;;5110685;28;20031;-42
2023/03/23 06:44:16;;;;;;;4.05;1.50;;;11.10;99.90;;;;;;5094284;28;20176;-43
2023/03/23 06:46:42;;;;;;;5.65;1.88;;;11.20;99.90;;;;;;5104992;28;20051;-41
2023/03/23 06:49:09;;;;;;;7.97;2.13;;;11.20;99.90;;;;;;5110332;28;20384;-42
2023/03/23 06:51:35;;;;;;;7.38;2.00;;;11.20;99.90;;;;;;5107164;28;20019;-41
2023/03/23 06:54:01;;;;;;;8.80;2.45;;;11.20;99.90;;;;;;5116012;28;20023;-40
2023/03/23 06:56:27;;;;;;;7.53;1.58;;;11.30;99.90;;;;;;5110389;28;20034;-42
2023/03/23 06:58:52;;;;;;;5.28;2.03;;;11.30;99.90;;;;;;5116017;28;20027;-42
2023/03/23 07:01:18;;;;;;;6.15;1.40;;;11.20;99.90;;;;;;5115845;28;20039;-43
2023/03/23 07:03:45;;;;;;;8.15;1.88;;;11.30;99.90;;;;;;5115632;28;20036;-42
2023/03/23 07:06:11;;;;;;;13.43;1.50;;;11.30;99.90;;;;;;5098505;28;20020;-42
2023/03/23 07:08:37;;;;;;;4.88;1.63;;;11.30;99.90;;;;;;5113623;28;20019;-43
2023/03/23 07:11:03;;;;;;;12.13;1.67;;;11.40;99.90;;;;;;5115504;28;20035;-41
2023/03/23 07:13:29;;;;;;;7.72;1.45;;;11.40;99.90;;;;;;5114726;28;20063;-43
2023/03/23 07:15:56;;;;;;;10.70;2.25;;;11.40;99.90;;;;;;5108089;28;20032;-44
2023/03/23 07:18:22;;;;;;;9.35;2.00;;;11.40;99.90;;;;;;5095296;28;20027;-44
2023/03/23 07:20:52;;;;;;;9.15;1.92;;;11.50;99.90;;;;;;5095218;28;20380;-43
2023/03/23 07:23:19;;;;;;;6.05;1.52;;;11.50;99.90;;;;;;5112209;28;20028;-40
2023/03/23 07:25:47;;;;;;;13.75;2.67;;;11.60;99.90;;;;;;5115490;28;20023;-42
2023/03/23 07:28:12;;;;;;;;;;;11.70;99.90;;;;;;5105250;28;20028;-42
2023/03/23 07:31:08;;;;;;;7.07;1.77;;;11.70;99.90;;;;;;5110934;28;19915;-43
2023/03/23 07:33:35;;;;;;;7.25;2.13;;;11.80;99.90;;;;;;5098134;28;20415;-43
2023/03/23 07:36:02;;;;;;;14.68;2.10;;;11.70;99.90;;;;;;5105312;28;20135;-38
2023/03/23 07:38:29;;;;;;;8.73;1.93;;;11.70;99.90;;;;;;5098339;28;20067;-40
2023/03/23 07:40:56;;;;;;;11.68;2.38;;;11.70;99.90;;;;;;5093572;28;20028;-42
2023/03/23 07:43:22;;;;;;;13.25;2.22;;;11.70;99.90;;;;;;5096695;28;20107;-40
2023/03/23 07:45:48;;;;;;;5.22;1.83;;;11.70;99.90;;;;;;5105006;28;20103;-41
2023/03/23 07:48:14;;;;;;;11.20;1.63;;;11.70;99.90;;;;;;5102573;28;20020;-43
2023/03/23 07:50:40;;;;;;;7.70;1.85;;;11.90;99.90;;;;;;5102134;28;20460;-45
2023/03/23 07:53:05;;;;;;;8.43;2.53;;;12.00;99.90;;;;;;5096648;28;20126;-45
2023/03/23 07:55:31;;;;;;;8.23;1.75;;;12.00;99.90;;;;;;5110160;28;20028;-41
2023/03/23 07:57:57;;;;;;;7.20;1.85;;;12.00;99.90;;;;;;5107564;28;20053;-42
2023/03/23 08:00:24;;;;;;;8.25;1.48;;;11.90;99.90;;;;;;5102731;28;20035;-43
2023/03/23 08:02:57;;;;;;;5.20;1.58;;;11.90;99.90;;;;;;5097532;28;20102;-46
2023/03/23 08:05:25;;;;;;;7.95;2.05;;;12.00;99.90;;;;;;5110668;28;20028;-42
2023/03/23 08:07:53;;;;;;;5.10;1.40;;;12.00;99.90;;;;;;5096956;28;20522;-44
2023/03/23 08:10:21;;;;;;;10.63;1.58;;;12.10;99.90;;;;;;5108388;28;20028;-38
2023/03/23 08:12:50;;;;;;;;;;;12.10;99.90;;;;;;5099869;28;20528;-41
2023/03/23 08:15:16;;;;;;;7.68;2.35;;;12.10;99.90;;;;;;5112541;28;19907;-44
2023/03/23 08:17:42;;;;;;;13.57;2.05;;;12.30;99.90;;;;;;5105350;28;20479;-44
2023/03/23 08:20:12;;;;;;;11.30;1.95;;;12.50;99.90;;;;;;5105930;28;20445;-42
2023/03/23 08:22:42;;;;;;;6.35;1.77;;;12.60;99.90;;;;;;5104197;28;20021;-41
2023/03/23 08:25:10;;;;;;;4.72;1.50;;;12.50;99.90;;;;;;5094999;28;20110;-44
2023/03/23 08:27:36;;;;;;;10.75;2.15;;;12.50;99.90;;;;;;5096654;28;20028;-47
2023/03/23 08:30:05;;;;;;;8.68;1.65;;;12.60;99.90;;;;;;5102147;28;20107;-42
2023/03/23 08:32:30;;;;;;;6.68;2.28;;;12.70;99.90;;;;;;5104654;28;20036;-46
2023/03/23 08:34:57;;;;;;;5.47;1.58;;;12.80;99.90;;;;;;5112600;28;20047;-42
2023/03/23 08:37:22;;;;;;;5.32;1.60;;;12.80;99.90;;;;;;5104461;28;20028;-45
2023/03/23 08:39:51;;;;;;;15.95;2.97;;;12.70;99.90;;;;;;5094682;28;20016;-43
2023/03/23 08:42:18;;;;;;;7.60;1.75;;;12.70;99.90;;;;;;5092876;28;20519;-44
2023/03/23 08:44:44;;;;;;;9.57;1.98;;;12.70;99.90;;;;;;5107887;28;20042;-42
2023/03/23 08:47:10;;;;;;;8.85;2.35;;;12.80;99.90;;;;;;5109191;28;20028;-46
2023/03/23 08:49:35;;;;;;;5.40;1.92;;;12.90;99.90;;;;;;5106770;28;20491;-43
2023/03/23 08:52:02;;;;;;;10.15;2.20;;;12.90;99.90;;;;;;5110841;28;20028;-43
2023/03/23 08:54:30;;;;;;;7.90;1.77;;;13.00;99.90;;;;;;5107416;28;20476;-50
2023/03/23 08:56:58;;;;;;;10.27;2.22;;;13.10;99.90;;;;;;5094335;28;20472;-44
2023/03/23 08:59:25;;;;;;;6.28;2.08;;;13.10;99.90;;;;;;5091985;28;20023;-39
2023/03/23 09:01:50;;;;;;;6.22;1.73;;;13.10;99.90;;;;;;5099558;28;21415;-44
2023/03/23 09:04:16;;;;;;;9.25;1.45;;;13.10;99.90;;;;;;5112663;28;20027;-43
2023/03/23 09:06:42;;;;;;;8.85;2.05;;;13.10;99.90;;;;;;5113367;28;20043;-48
2023/03/23 09:09:08;;;;;;;8.73;1.98;;;13.00;99.90;;;;;;5113467;28;20475;-42
2023/03/23 09:11:35;;;;;;;6.85;2.10;;;12.90;99.90;;;;;;5112859;28;20098;-43
2023/03/23 09:14:03;;;;;;;5.10;1.98;;;13.00;99.90;;;;;;5113188;28;20521;-46
2023/03/23 09:16:29;;;;;;;7.70;1.83;;;13.00;99.90;;;;;;5113242;28;20020;-47
2023/03/23 09:18:56;;;;;;;7.80;2.38;;;13.00;99.90;;;;;;5094531;28;20539;-42
2023/03/23 09:21:23;;;;;;;4.03;1.77;;;13.10;99.90;;;;;;5092904;28;20035;-42
2023/03/23 09:23:49;;;;;;;7.90;1.85;;;13.10;99.90;;;;;;5092884;28;20073;-44
2023/03/23 09:26:15;;;;;;;22.55;2.60;;;13.20;99.90;;;;;;5100645;28;20463;-41
2023/03/23 09:28:41;;;;;;;14.73;1.52;;;13.40;99.90;;;;;;5111958;28;20016;-54
2023/03/23 09:31:06;;;;;;;13.93;2.15;;;13.50;99.90;;;;;;5113213;28;20036;-42
2023/03/23 09:33:35;;;;;;;4.05;1.67;;;13.40;99.90;;;;;;5111906;28;20388;-44
2023/03/23 09:36:02;;;;;;;12.00;2.08;;;13.40;99.90;;;;;;5112902;28;20085;-45
2023/03/23 09:38:32;;;;;;;19.42;1.83;;;13.40;99.90;;;;;;5113382;28;20472;-44
2023/03/23 09:41:15;;;;;;;12.13;2.30;;;13.50;99.90;;;;;;5113121;28;20024;-51
2023/03/23 09:43:59;;;;;;;12.77;1.73;;;13.60;99.90;;;;;;5113048;28;20019;-49
2023/03/23 09:46:39;;;;;;;11.40;1.85;;;13.80;99.90;;;;;;5113160;28;20043;-42
2023/03/23 09:49:13;;;;;;;7.38;1.60;;;14.00;99.90;;;;;;5113282;28;20459;-44
2023/03/23 09:51:53;;;;;;;18.08;2.40;;;14.20;99.90;;;;;;5113071;28;20024;-40
2023/03/23 09:54:46;;;;;;;6.75;1.83;;;14.30;99.90;;;;;;5113616;28;20482;-40
2023/03/23 09:57:53;;;;;;;14.88;2.63;;;14.30;99.90;;;;;;5113005;28;20437;-44
2023/03/23 10:00:25;;;;;;;6.47;1.30;;;14.30;99.90;;;;;;5103913;28;20123;-46
2023/03/23 10:03:17;;;;;;;4.45;1.77;;;14.30;99.90;;;;;;5112931;28;20051;-42
2023/03/23 10:05:49;;;;;;;7.53;1.80;;;14.20;99.90;;;;;;5113136;28;20067;-43
2023/03/23 10:08:16;;;;;;;4.07;1.45;;;14.20;99.90;;;;;;5112930;28;20030;-45
2023/03/23 10:11:00;;;;;;;5.35;1.67;;;14.10;99.90;;;;;;5113502;28;20476;-45
2023/03/23 10:13:38;;;;;;;14.15;1.40;;;14.00;99.90;;;;;;5117000;28;20039;-41
2023/03/23 10:16:08;;;;;;;11.60;1.83;;;13.90;99.90;;;;;;5116707;28;20036;-49
2023/03/23 10:18:41;;;;;;;13.13;1.40;;;13.80;99.90;;;;;;5115207;28;20483;-44
2023/03/23 10:21:16;;;;;;;9.57;2.05;;;14.00;99.90;;;;;;5116852;28;20419;-38
2023/03/23 10:23:56;;;;;;;9.40;2.15;;;14.20;99.90;;;;;;5116448;28;20035;-37
2023/03/23 10:26:33;;;;;;;10.70;2.03;;;14.30;99.90;;;;;;5116369;28;20080;-44
2023/03/23 10:29:10;;;;;;;16.30;2.20;;;14.50;99.90;;;;;;5116733;28;20058;-44
2023/03/23 10:31:43;;;;;;;8.70;2.00;;;14.50;99.90;;;;;;5116376;28;20504;-43
2023/03/23 10:34:21;;;;;;;9.43;1.55;;;14.60;99.90;;;;;;5116121;28;20050;-44
2023/03/23 10:37:04;;;;;;;8.80;1.98;;;14.40;99.90;;;;;;5116227;28;20035;-45
2023/03/23 10:39:43;;;;;;;13.15;2.28;;;14.40;99.90;;;;;;5116247;27;20020;-42
2023/03/23 10:42:09;;;;;;;9.30;1.77;;;14.40;99.90;;;;;;5116198;28;20028;-43
2023/03/23 10:44:35;;;;;;;9.05;2.08;;;14.40;99.90;;;;;;5115986;27;20030;-45
2023/03/23 10:47:04;;;;;;;17.65;2.20;;;14.50;99.90;;;;;;5115882;27;20020;-46
2023/03/23 10:49:34;;;;;;;12.93;1.58;;;14.50;99.90;;;;;;5115792;28;20035;-45
2023/03/23 10:52:26;;;;;;;6.85;1.77;;;14.50;99.90;;;;;;5116127;28;20511;-45
2023/03/23 10:55:15;;;;;;;6.72;2.47;;;14.40;99.90;;;;;;5115769;28;20114;-47
2023/03/23 10:57:46;;;;;;;6.32;1.30;;;14.50;99.90;;;;;;5115842;27;20039;-49
2023/03/23 11:00:26;;;;;;;10.60;2.60;;;14.60;99.90;;;;;;5115708;28;20107;-45
2023/03/23 11:03:21;;;;;;;3.83;1.42;;;14.80;99.90;;;;;;5116038;28;20046;-46
2023/03/23 11:05:56;;;;;;;10.23;2.15;;;14.90;99.90;;;;;;5115950;28;20479;-52
2023/03/23 11:08:26;;;;;;;7.72;1.85;;;14.90;99.90;;;;;;5115738;28;20055;-49
2023/03/23 11:10:55;;;;;;;9.85;2.35;;;15.00;99.90;;;;;;5115632;28;20433;-45
2023/03/23 11:13:24;;;;;;;12.30;2.42;;;14.90;99.90;;;;;;5115793;28;20019;-47
2023/03/23 11:15:50;;;;;;;14.90;1.98;;;14.70;99.90;;;;;;5115752;28;20027;-44
2023/03/23 11:18:22;;;;;;;10.80;1.70;;;14.60;99.90;;;;;;5115226;28;20035;-45
2023/03/23 11:20:58;;;;;;;5.85;2.28;;;14.70;99.90;;;;;;5115169;28;20548;-45
2023/03/23 11:23:30;;;;;;;8.23;1.90;;;14.90;99.90;;;;;;5114706;28;20494;-47
2023/03/23 11:26:24;;;;;;;6.60;1.70;;;15.10;99.90;;;;;;5115429;28;20134;-51
2023/03/23 11:29:06;;;;;;;8.30;2.25;;;15.40;99.90;;;;;;5115568;28;20472;-44
2023/03/23 11:31:39;;;;;;;8.07;1.42;;;15.70;99.90;;;;;;5115224;28;20488;-47
2023/03/23 11:34:35;;;;;;;7.93;2.10;;;15.80;99.90;;;;;;5114855;28;20106;-44
2023/03/23 11:37:09;;;;;;;7.28;1.73;;;15.70;99.90;;;;;;5113871;28;20028;-48
2023/03/23 11:39:46;;;;;;;11.40;1.77;;;15.50;99.90;;;;;;5115237;28;20031;-46
2023/03/23 11:42:19;;;;;;;5.00;1.43;;;15.30;99.90;;;;;;5114846;28;20107;-45
2023/03/23 11:44:45;;;;;;;5.03;1.40;;;15.20;99.90;;;;;;5114926;28;20044;-43
2023/03/23 11:47:35;;;;;;;13.43;2.40;;;15.20;99.90;;;;;;5115130;28;20518;-50
2023/03/23 11:50:05;;;;;;;5.30;1.08;;;15.10;99.90;;;;;;5114652;28;20097;-45
2023/03/23 11:52:43;;;;;;;12.32;1.85;;;15.10;99.90;;;;;;5114717;28;20035;-46
2023/03/23 11:55:14;;;;;;;10.05;1.73;;;14.70;99.90;;;;;;5115452;28;20042;-43
2023/03/23 11:57:40;;;;;;;9.70;1.65;;;14.50;99.90;;;;;;5114648;27;20031;-58
2023/03/23 12:00:18;;;;;;;11.65;1.95;;;14.40;99.90;;;;;;5114588;28;20047;-46
2023/03/23 12:02:56;;;;;;;13.30;1.63;;;14.40;99.90;;;;;;5114756;28;20106;-52
2023/03/23 12:05:40;;;;;;;8.73;1.65;;;14.50;99.90;;;;;;5113211;28;20491;-47
2023/03/23 12:08:25;;;;;;;15.77;2.70;;;14.50;99.90;;;;;;5113157;28;20016;-45
2023/03/23 12:11:14;;;;;;;15.85;2.03;;;14.40;99.90;;;;;;5114379;28;20030;-47
2023/03/23 12:14:04;;;;;;;12.20;1.63;;;14.40;99.90;;;;;;5114363;28;20430;-48
2023/03/23 12:17:00;;;;;;;4.38;1.40;;;14.60;99.90;;;;;;5114216;28;20031;-45
2023/03/23 12:19:57;;;;;;;6.97;1.57;;;15.00;99.90;;;;;;5114244;28;20043;-35
2023/03/23 12:22:26;;;;;;;5.60;2.07;;;15.40;99.90;;;;;;5114240;28;20281;-36
2023/03/23 12:25:20;;;;;;;10.05;1.45;;;15.70;99.90;;;;;;5114088;28;20261;-32
2023/03/23 12:28:10;;;;;;;3.70;1.63;;;15.70;99.90;;;;;;5114010;28;20076;-34
2023/03/23 12:30:53;;;;;;;6.18;1.35;;;15.70;99.90;;;;;;5113954;28;20035;-37
2023/03/23 12:33:30;;;;;;;8.98;1.63;;;16.00;99.90;;;;;;5113708;28;20038;-39
2023/03/23 12:36:12;;;;;;;8.05;1.50;;;16.10;99.90;;;;;;5113656;28;20051;-34
2023/03/23 12:38:41;;;;;;;4.75;1.13;;;16.00;99.90;;;;;;5113787;28;20038;-34
2023/03/23 12:41:22;;;;;;;6.93;1.50;;;16.00;99.90;;;;;;5113732;28;20069;-36
2023/03/23 12:43:59;;;;;;;7.20;1.55;;;15.80;99.90;;;;;;5113713;28;20082;-38
2023/03/23 12:46:47;;;;;;;7.07;1.33;;;15.90;99.90;;;;;;5113757;28;20066;-35
2023/03/23 12:49:22;;;;;;;5.28;1.10;;;15.90;99.90;;;;;;5113782;28;20747;-35
2023/03/23 12:52:13;;;;;;;2.15;0.80;;;15.80;99.90;;;;;;5113918;27;20384;-38
2023/03/23 12:54:58;;;;;;;5.63;1.08;;;15.90;99.90;;;;;;5113749;28;20039;-35
2023/03/23 12:57:30;;;;;;;7.45;1.98;;;16.00;99.90;;;;;;5113550;28;20491;-34
2023/03/23 13:00:19;;;;;;;8.27;2.17;;;16.00;99.90;;;;;;5112385;28;20024;-35
2023/03/23 13:02:54;;;;;;;9.43;1.90;;;15.90;99.90;;;;;;5113444;28;20039;-37
2023/03/23 13:05:26;;;;;;;6.45;1.55;;;15.90;99.90;;;;;;5112217;28;20438;-38